Time;durP1;ratioP1;P1;durP2;ratioP2;P2;SDS_P1;SDS_P2;PMS_P1;PMS_P2;Temp;Humidity;BMP_temperature;BMP_pressure;BME280_temperature;BME280_humidity;BME280_pressure;Samples;Min_cycle;Max_cycle;Signal;HPM_P1;HPM_P2
2022/06/12 00:00:25;;;;;;;11.73;10.52;;;19.50;55.80;;;;;;5040483;28;20375;-80
2022/06/12 00:02:51;;;;;;;12.27;10.88;;;19.50;55.80;;;;;;5046423;28;20384;-80
2022/06/12 00:05:18;;;;;;;13.50;10.90;;;19.50;55.80;;;;;;5024472;28;20049;-80
2022/06/12 00:07:44;;;;;;;12.95;11.40;;;19.50;56.00;;;;;;5028832;28;20052;-80
2022/06/12 00:10:10;;;;;;;12.57;11.40;;;19.40;56.20;;;;;;5047205;28;20041;-80
2022/06/12 00:12:37;;;;;;;13.55;12.15;;;19.20;56.60;;;;;;5030145;28;20379;-80
2022/06/12 00:15:04;;;;;;;13.88;12.50;;;19.10;57.00;;;;;;5023808;28;20072;-79
2022/06/12 00:17:30;;;;;;;14.20;12.80;;;19.20;57.00;;;;;;5014947;28;20384;-80
2022/06/12 00:19:56;;;;;;;14.52;13.30;;;19.10;57.40;;;;;;5046697;28;20028;-80
2022/06/12 00:22:22;;;;;;;15.63;14.13;;;19.00;57.60;;;;;;5016908;28;20053;-80
2022/06/12 00:24:48;;;;;;;14.05;12.93;;;19.10;57.50;;;;;;5052504;28;20025;-80
2022/06/12 00:27:15;;;;;;;14.25;13.13;;;19.10;57.60;;;;;;5051837;28;20036;-80
2022/06/12 00:29:42;;;;;;;14.50;13.13;;;19.00;57.80;;;;;;5050059;28;20040;-80
2022/06/12 00:32:13;;;;;;;14.02;13.00;;;18.90;58.30;;;;;;5027728;28;20045;-80
2022/06/12 00:34:42;;;;;;;14.48;13.32;;;18.70;58.60;;;;;;5032542;28;20033;-80
2022/06/12 00:37:09;;;;;;;14.75;13.45;;;18.80;58.70;;;;;;5035492;28;20029;-80
2022/06/12 00:39:36;;;;;;;15.18;13.85;;;18.70;58.70;;;;;;5051567;28;20045;-80
2022/06/12 00:42:02;;;;;;;15.18;13.82;;;18.60;59.00;;;;;;5044143;28;20406;-80
2022/06/12 00:44:31;;;;;;;14.30;13.18;;;18.50;59.30;;;;;;5027763;28;20465;-80
2022/06/12 00:46:59;;;;;;;14.77;13.68;;;18.60;59.10;;;;;;5048298;28;20036;-80
2022/06/12 00:49:51;;;;;;;14.98;13.68;;;18.60;59.20;;;;;;5050958;28;20040;-80
2022/06/12 00:52:18;;;;;;;17.77;16.48;;;18.70;59.10;;;;;;5047492;28;20451;-80
2022/06/12 00:54:47;;;;;;;15.05;13.70;;;18.60;59.10;;;;;;5051261;28;20268;-80
2022/06/12 00:57:14;;;;;;;14.63;12.43;;;18.60;59.20;;;;;;5014834;28;20036;-80
2022/06/12 00:59:46;;;;;;;12.40;11.20;;;18.60;59.40;;;;;;5027464;28;20044;-80
2022/06/12 01:02:15;;;;;;;14.93;10.65;;;18.50;59.60;;;;;;5017601;28;20491;-80
2022/06/12 01:07:34;;;;;;;11.57;10.57;;;18.50;59.60;;;;;;5038016;28;20028;-80
2022/06/12 01:10:02;;;;;;;10.70;9.65;;;18.50;59.70;;;;;;5043867;28;20400;-81
2022/06/12 01:12:30;;;;;;;10.93;8.68;;;18.40;60.30;;;;;;5033858;28;20036;-80
2022/06/12 01:15:07;;;;;;;13.52;8.63;;;18.20;61.00;;;;;;5027076;28;20398;-80
2022/06/12 01:17:33;;;;;;;11.20;8.63;;;18.10;61.40;;;;;;5033062;28;20056;-80
2022/06/12 01:20:02;;;;;;;9.77;8.80;;;18.00;61.80;;;;;;5044679;28;20445;-80
2022/06/12 01:22:52;;;;;;;12.35;8.80;;;18.00;61.60;;;;;;5031716;28;20028;-80
2022/06/12 01:25:30;;;;;;;10.93;8.75;;;18.10;61.30;;;;;;5048257;28;20613;-80
2022/06/12 01:28:05;;;;;;;9.45;8.52;;;18.10;60.90;;;;;;5050938;28;20041;-80
2022/06/12 01:30:45;;;;;;;12.18;8.75;;;18.00;61.30;;;;;;5050021;28;20072;-80
2022/06/12 01:33:20;;;;;;;11.38;9.10;;;18.00;61.40;;;;;;5042957;28;20021;-80
2022/06/12 01:35:58;;;;;;;11.07;9.35;;;17.90;61.60;;;;;;5043545;28;20028;-81
2022/06/12 01:38:50;;;;;;;12.27;9.25;;;17.80;62.00;;;;;;5042969;28;20522;-80
2022/06/12 01:41:28;;;;;;;;;;;17.80;62.10;;;;;;5043847;28;20048;-80
2022/06/12 01:44:02;;;;;;;9.75;8.73;;;17.70;63.20;;;;;;5049837;28;19917;-80
2022/06/12 01:46:54;;;;;;;9.57;8.63;;;17.70;63.20;;;;;;5047875;28;20380;-80
2022/06/12 01:49:28;;;;;;;15.70;8.60;;;17.60;63.50;;;;;;4968101;28;20035;-80
2022/06/12 01:52:04;;;;;;;9.43;8.57;;;17.60;63.60;;;;;;4954751;28;20034;-80
2022/06/12 01:54:51;;;;;;;12.48;9.07;;;17.60;63.80;;;;;;4954081;28;20397;-80
2022/06/12 01:57:21;;;;;;;10.38;8.60;;;17.70;63.80;;;;;;4951117;28;20031;-80
2022/06/12 01:59:47;;;;;;;13.25;9.07;;;17.70;63.40;;;;;;4954392;28;20041;-80
2022/06/12 02:02:31;;;;;;;10.40;8.90;;;17.70;63.60;;;;;;4953251;28;20047;-80
2022/06/12 02:05:14;;;;;;;10.20;8.98;;;17.80;63.50;;;;;;4967821;28;20047;-80
2022/06/12 02:07:57;;;;;;;13.10;8.88;;;17.70;63.60;;;;;;4952810;28;20050;-80
2022/06/12 02:10:35;;;;;;;14.27;9.30;;;17.60;63.90;;;;;;4952442;28;20382;-81
2022/06/12 02:13:16;;;;;;;15.50;8.98;;;17.50;64.60;;;;;;4951851;28;20053;-80
2022/06/12 02:15:55;;;;;;;12.63;9.88;;;17.50;64.70;;;;;;4923155;28;20062;-80
2022/06/12 02:18:43;;;;;;;12.50;10.57;;;17.40;64.80;;;;;;4952162;28;20018;-80
2022/06/12 02:21:27;;;;;;;12.43;10.43;;;17.40;64.90;;;;;;4937295;28;20042;-80
2022/06/12 02:23:58;;;;;;;13.60;11.02;;;17.50;64.60;;;;;;4967232;28;20046;-80
2022/06/12 02:26:28;;;;;;;16.05;11.43;;;17.40;65.00;;;;;;4997833;28;20045;-80
2022/06/12 02:29:00;;;;;;;11.77;10.70;;;17.20;65.60;;;;;;5030637;28;20392;-80
2022/06/12 02:31:28;;;;;;;12.27;11.18;;;17.10;66.40;;;;;;5031119;28;20387;-80
2022/06/12 02:34:01;;;;;;;14.55;11.48;;;17.00;66.70;;;;;;5049549;28;20470;-80
2022/06/12 02:36:42;;;;;;;13.93;10.93;;;17.00;67.00;;;;;;5025706;28;20029;-80
2022/06/12 02:39:48;;;;;;;11.13;10.00;;;16.80;67.40;;;;;;5026146;28;20032;-80
2022/06/12 02:42:18;;;;;;;11.98;10.70;;;16.70;67.70;;;;;;4969369;28;20563;-80
2022/06/12 02:44:55;;;;;;;13.13;10.38;;;16.80;67.40;;;;;;4970174;28;20046;-80
2022/06/12 02:47:23;;;;;;;10.60;9.38;;;16.90;67.10;;;;;;4985433;28;20027;-80
2022/06/12 02:49:50;;;;;;;17.52;16.05;;;16.90;68.20;;;;;;4953089;28;20057;-80
2022/06/12 02:52:19;;;;;;;18.42;16.83;;;16.90;67.30;;;;;;4970160;28;20034;-80
2022/06/12 02:54:54;;;;;;;18.73;17.30;;;16.90;67.10;;;;;;4987435;28;20042;-80
2022/06/12 02:57:27;;;;;;;18.38;16.73;;;16.90;67.20;;;;;;4973336;28;20023;-80
2022/06/12 03:00:18;;;;;;;18.77;17.00;;;17.00;67.00;;;;;;4985806;28;20084;-80
2022/06/12 03:02:50;;;;;;;;;;;17.00;66.80;;;;;;4948764;28;20050;-80
2022/06/12 03:05:20;;;;;;;;;;;17.20;66.30;;;;;;4981731;28;19910;-80
2022/06/12 03:07:48;;;;;;;17.48;15.68;;;17.20;66.00;;;;;;4972944;28;20371;-80
2022/06/12 03:10:17;;;;;;;17.70;16.10;;;17.00;66.90;;;;;;4955438;28;20057;-80
2022/06/12 03:12:44;;;;;;;16.38;15.05;;;16.90;67.60;;;;;;5009391;28;20053;-80
2022/06/12 03:15:27;;;;;;;17.27;15.70;;;16.80;67.70;;;;;;5011666;28;20037;-80
2022/06/12 03:17:53;;;;;;;17.48;16.02;;;16.80;67.80;;;;;;5043709;28;20471;-80
2022/06/12 03:20:19;;;;;;;17.45;15.77;;;16.80;67.60;;;;;;5040851;28;20033;-80
2022/06/12 03:23:05;;;;;;;17.52;15.95;;;16.80;67.70;;;;;;5013469;28;20052;-80
2022/06/12 03:25:41;;;;;;;17.00;15.45;;;16.80;67.90;;;;;;5015629;28;20076;-80
2022/06/12 03:28:28;;;;;;;16.92;15.52;;;16.70;68.10;;;;;;5012512;28;20052;-80
2022/06/12 03:31:07;;;;;;;16.67;15.18;;;16.70;68.40;;;;;;5031884;28;20108;-80
2022/06/12 03:33:45;;;;;;;17.15;15.63;;;16.70;68.20;;;;;;5028125;28;20526;-80
2022/06/12 03:36:25;;;;;;;17.73;16.00;;;16.80;67.60;;;;;;5046030;28;20037;-80
2022/06/12 03:38:52;;;;;;;17.60;15.77;;;16.90;67.50;;;;;;5025502;28;20036;-80
2022/06/12 03:41:36;;;;;;;18.27;16.48;;;16.80;67.80;;;;;;5048015;28;20037;-80
2022/06/12 03:44:10;;;;;;;16.98;15.40;;;16.60;68.40;;;;;;5046565;28;20395;-80
2022/06/12 03:47:02;;;;;;;17.70;16.05;;;16.70;68.00;;;;;;5028496;28;20025;-80
2022/06/12 03:49:45;;;;;;;17.40;15.80;;;16.70;68.00;;;;;;5037291;28;20025;-80
2022/06/12 03:52:21;;;;;;;17.38;16.00;;;16.70;68.10;;;;;;5044957;28;20040;-80
2022/06/12 03:55:06;;;;;;;18.30;17.00;;;16.70;67.70;;;;;;5048808;28;20036;-80
2022/06/12 03:57:53;;;;;;;17.60;15.98;;;16.80;67.50;;;;;;5053031;28;20440;-80
2022/06/12 04:00:27;;;;;;;20.90;16.27;;;16.70;67.50;;;;;;5030912;28;20029;-80
2022/06/12 04:03:06;;;;;;;18.02;16.23;;;16.70;67.70;;;;;;5028401;28;20029;-80
2022/06/12 04:05:42;;;;;;;16.73;15.27;;;16.60;67.90;;;;;;5045179;28;20479;-80
2022/06/12 04:08:13;;;;;;;16.85;15.30;;;16.50;68.40;;;;;;5033009;28;20484;-80
2022/06/12 04:10:39;;;;;;;16.92;14.95;;;16.30;69.20;;;;;;5017353;28;20041;-80
2022/06/12 04:13:08;;;;;;;16.00;14.60;;;16.50;69.00;;;;;;5036105;28;20415;-80
2022/06/12 04:15:54;;;;;;;16.73;15.25;;;16.50;68.70;;;;;;5012639;28;20403;-81
2022/06/12 04:18:21;;;;;;;16.33;14.93;;;16.40;68.80;;;;;;5044670;28;20431;-80
2022/06/12 04:21:21;;;;;;;16.10;14.60;;;16.30;69.50;;;;;;5028277;28;20025;-80
2022/06/12 04:24:07;;;;;;;16.15;14.00;;;16.20;69.80;;;;;;5044676;28;20032;-80
2022/06/12 04:26:34;;;;;;;15.48;13.93;;;16.20;70.00;;;;;;5034800;28;20029;-80
2022/06/12 04:29:16;;;;;;;16.15;13.77;;;16.20;70.20;;;;;;5031619;28;20040;-80
2022/06/12 04:31:44;;;;;;;14.73;13.50;;;16.10;70.70;;;;;;5033491;28;20029;-80
2022/06/12 04:34:15;;;;;;;16.35;13.48;;;16.00;70.90;;;;;;5034896;28;20025;-81
2022/06/12 04:36:42;;;;;;;14.85;13.65;;;16.00;71.20;;;;;;5034856;28;20368;-80
2022/06/12 04:39:08;;;;;;;16.13;14.55;;;15.90;71.50;;;;;;5015229;28;20143;-80
2022/06/12 04:41:38;;;;;;;16.92;15.05;;;15.90;71.60;;;;;;5018202;28;20049;-80
2022/06/12 04:44:04;;;;;;;14.95;13.55;;;15.90;71.60;;;;;;5028682;28;20051;-80
2022/06/12 04:46:32;;;;;;;17.73;14.18;;;15.90;71.60;;;;;;5048486;28;20048;-80
2022/06/12 04:48:59;;;;;;;15.00;13.50;;;15.90;71.70;;;;;;5051836;28;20040;-80
2022/06/12 04:51:25;;;;;;;18.98;15.05;;;16.00;71.60;;;;;;5027677;28;20466;-80
2022/06/12 04:53:52;;;;;;;20.40;17.85;;;16.10;71.20;;;;;;5027724;28;20031;-80
2022/06/12 04:56:19;;;;;;;23.00;19.80;;;16.10;71.00;;;;;;5010711;28;20037;-80
2022/06/12 04:58:46;;;;;;;24.42;19.50;;;16.20;70.90;;;;;;5048613;28;20492;-80
2022/06/12 05:01:12;;;;;;;20.85;18.23;;;16.20;70.70;;;;;;5014704;28;20475;-80
2022/06/12 05:03:38;;;;;;;16.80;15.20;;;16.20;71.10;;;;;;5032925;28;20048;-81
2022/06/12 05:06:05;;;;;;;18.52;15.27;;;16.20;71.00;;;;;;5027019;28;20021;-81
2022/06/12 05:08:31;;;;;;;15.90;14.40;;;16.20;71.10;;;;;;5034008;28;20048;-80
2022/06/12 05:10:57;;;;;;;14.98;12.88;;;16.20;71.10;;;;;;5017630;28;20037;-81
2022/06/12 05:13:23;;;;;;;17.75;12.18;;;16.40;70.80;;;;;;5049866;28;20450;-80
2022/06/12 05:15:49;;;;;;;12.98;11.18;;;16.50;70.30;;;;;;5050776;28;20056;-80
2022/06/12 05:18:16;;;;;;;16.88;10.90;;;16.60;70.10;;;;;;5043530;28;20029;-81
2022/06/12 05:20:43;;;;;;;16.02;11.35;;;16.80;69.40;;;;;;5026997;28;20032;-81
2022/06/12 05:23:09;;;;;;;18.48;10.30;;;16.90;68.90;;;;;;5043617;28;20041;-81
2022/06/12 05:25:35;;;;;;;12.00;10.25;;;16.80;68.80;;;;;;5031776;28;20041;-80
2022/06/12 05:28:03;;;;;;;16.88;10.70;;;16.80;68.80;;;;;;5035105;28;20029;-80
2022/06/12 05:30:30;;;;;;;13.32;10.40;;;16.70;69.20;;;;;;5026361;28;20376;-81
2022/06/12 05:32:57;;;;;;;15.63;10.27;;;16.90;69.10;;;;;;5033816;28;20052;-81
2022/06/12 05:35:23;;;;;;;11.77;10.57;;;17.00;68.40;;;;;;5043247;28;20033;-81
2022/06/12 05:37:50;;;;;;;15.00;10.65;;;17.20;68.00;;;;;;5047928;28;20590;-81
2022/06/12 05:40:19;;;;;;;13.43;11.40;;;17.10;68.30;;;;;;5033765;28;20487;-81
2022/06/12 05:42:45;;;;;;;15.50;12.00;;;17.00;68.10;;;;;;5045936;28;20048;-81
2022/06/12 05:45:13;;;;;;;16.10;12.77;;;17.20;68.00;;;;;;5047080;28;20041;-80
2022/06/12 05:47:51;;;;;;;15.75;13.65;;;17.40;67.10;;;;;;5014112;28;20037;-81
2022/06/12 05:50:18;;;;;;;15.50;13.90;;;17.40;67.00;;;;;;5023756;28;20037;-82
2022/06/12 05:52:44;;;;;;;19.73;14.77;;;17.60;66.60;;;;;;5030976;28;20029;-81
2022/06/12 05:55:10;;;;;;;19.17;15.35;;;17.60;66.50;;;;;;5033759;28;20037;-82
2022/06/12 05:57:36;;;;;;;17.60;16.02;;;17.70;66.40;;;;;;5048573;28;20068;-81
2022/06/12 06:00:05;;;;;;;17.65;14.93;;;18.00;65.70;;;;;;5042358;28;20021;-79
2022/06/12 06:02:31;;;;;;;16.42;14.98;;;18.10;65.00;;;;;;5042800;28;20028;-82
2022/06/12 06:04:57;;;;;;;16.65;15.02;;;18.10;64.80;;;;;;5016431;28;20056;-81
2022/06/12 06:07:23;;;;;;;16.52;14.93;;;18.10;65.10;;;;;;5032280;28;20266;-81
2022/06/12 06:09:49;;;;;;;16.90;15.02;;;18.20;64.80;;;;;;5032521;28;20444;-82
2022/06/12 06:12:15;;;;;;;19.90;15.68;;;18.30;64.20;;;;;;5042645;28;20039;-82
2022/06/12 06:14:41;;;;;;;16.75;15.20;;;18.40;64.00;;;;;;5025826;28;20045;-82
2022/06/12 06:17:08;;;;;;;19.45;14.55;;;18.40;64.00;;;;;;5041398;28;20522;-82
2022/06/12 06:19:34;;;;;;;17.20;15.55;;;18.40;63.70;;;;;;5048490;28;20040;-82
2022/06/12 06:22:00;;;;;;;17.00;15.50;;;18.60;63.40;;;;;;5050261;28;20029;-81
2022/06/12 06:24:26;;;;;;;17.67;15.85;;;18.60;63.30;;;;;;5049472;28;20049;-82
2022/06/12 06:26:52;;;;;;;19.38;15.77;;;18.70;63.60;;;;;;5041935;28;20029;-81
2022/06/12 06:29:18;;;;;;;18.55;16.23;;;18.80;63.30;;;;;;5016263;28;20514;-81
2022/06/12 06:31:44;;;;;;;18.02;16.30;;;18.90;62.60;;;;;;5044483;28;20030;-82
2022/06/12 06:34:11;;;;;;;19.00;17.10;;;18.90;62.30;;;;;;5049236;28;20029;-82
2022/06/12 06:36:37;;;;;;;18.55;16.85;;;18.90;62.30;;;;;;5050142;28;20033;-81
2022/06/12 06:39:03;;;;;;;20.60;18.33;;;19.00;62.20;;;;;;5042103;28;20025;-82
2022/06/12 06:41:29;;;;;;;22.42;20.63;;;19.10;62.10;;;;;;5041705;28;20468;-82
2022/06/12 06:46:40;;;;;;;21.60;19.63;;;19.00;62.00;;;;;;5034378;28;20052;-82
2022/06/12 06:49:06;;;;;;;17.45;15.65;;;19.00;62.20;;;;;;5049532;28;20029;-82
2022/06/12 06:51:32;;;;;;;19.42;17.58;;;19.00;62.70;;;;;;5046764;28;20050;-82
2022/06/12 06:53:59;;;;;;;19.08;15.30;;;19.00;62.50;;;;;;5042024;28;20029;-81
2022/06/12 06:56:25;;;;;;;17.98;16.10;;;18.90;62.50;;;;;;5047224;28;20060;-82
2022/06/12 06:58:54;;;;;;;20.23;18.25;;;19.00;62.90;;;;;;5047182;28;20040;-83
2022/06/12 07:01:20;;;;;;;19.95;16.90;;;19.20;61.90;;;;;;5048800;28;20028;-81
2022/06/12 07:03:46;;;;;;;19.50;17.45;;;19.20;61.70;;;;;;5049154;28;20366;-82
2022/06/12 07:06:13;;;;;;;19.67;17.65;;;19.30;61.70;;;;;;5047376;28;20025;-82
2022/06/12 07:08:39;;;;;;;21.30;19.10;;;19.30;62.00;;;;;;5025056;28;20032;-82
2022/06/12 07:11:05;;;;;;;21.65;18.92;;;19.60;61.30;;;;;;5047003;28;20482;-82
2022/06/12 07:13:32;;;;;;;23.83;22.10;;;19.60;61.10;;;;;;5029793;28;20063;-82
2022/06/12 07:15:58;;;;;;;26.95;23.83;;;19.60;60.60;;;;;;5048339;28;20051;-82
2022/06/12 07:18:24;;;;;;;22.80;20.63;;;19.70;60.30;;;;;;5028704;28;20044;-82
2022/06/12 07:20:53;;;;;;;22.83;20.75;;;19.70;60.50;;;;;;5046603;28;20490;-82
2022/06/12 07:23:20;;;;;;;26.42;24.45;;;19.70;60.40;;;;;;5041469;28;20033;-82
2022/06/12 07:25:49;;;;;;;22.70;20.55;;;19.80;60.10;;;;;;5029296;28;20037;-82
2022/06/12 07:28:15;;;;;;;25.02;22.92;;;19.80;60.50;;;;;;5013514;28;20033;-82
2022/06/12 07:30:41;;;;;;;25.35;23.48;;;20.10;59.40;;;;;;5028570;28;20038;-81
2022/06/12 07:33:08;;;;;;;26.63;24.30;;;20.00;59.30;;;;;;5031655;28;20037;-82
2022/06/12 07:35:35;;;;;;;23.95;21.85;;;20.10;59.10;;;;;;5024857;28;20029;-83
2022/06/12 07:38:01;;;;;;;24.42;22.30;;;20.20;59.20;;;;;;5015301;28;20021;-82
2022/06/12 07:40:37;;;;;;;26.23;23.85;;;20.30;58.80;;;;;;5013046;28;20037;-82
2022/06/12 07:43:03;;;;;;;28.75;26.13;;;20.40;58.70;;;;;;5025475;28;20064;-82
2022/06/12 07:45:30;;;;;;;30.48;28.38;;;20.50;57.70;;;;;;5030137;28;20040;-82
2022/06/12 07:47:57;;;;;;;28.73;26.17;;;20.70;57.60;;;;;;5041137;28;20021;-82
2022/06/12 07:50:23;;;;;;;27.00;24.80;;;20.80;57.30;;;;;;5024769;28;20041;-82
2022/06/12 07:52:49;;;;;;;27.20;25.13;;;20.90;57.20;;;;;;5047159;28;20032;-82
2022/06/12 07:55:16;;;;;;;27.92;25.50;;;20.80;56.80;;;;;;5031019;28;20025;-83
2022/06/12 07:57:43;;;;;;;25.02;23.10;;;21.00;57.30;;;;;;5012606;28;20045;-83
2022/06/12 08:00:10;;;;;;;27.77;25.50;;;21.20;56.50;;;;;;5044833;28;20025;-82
2022/06/12 08:02:36;;;;;;;25.55;23.13;;;21.00;55.70;;;;;;5046562;28;20021;-82
2022/06/12 08:05:03;;;;;;;22.15;20.45;;;21.00;56.50;;;;;;5025301;28;20061;-82
2022/06/12 08:07:29;;;;;;;24.90;23.05;;;21.20;55.90;;;;;;5045791;28;20482;-82
2022/06/12 08:09:55;;;;;;;22.73;20.77;;;21.30;55.10;;;;;;5047750;28;20033;-82
2022/06/12 08:12:22;;;;;;;21.48;19.80;;;21.40;55.00;;;;;;5047860;28;20025;-82
2022/06/12 08:14:48;;;;;;;23.30;21.55;;;21.50;54.20;;;;;;5046241;28;20041;-83
2022/06/12 08:17:14;;;;;;;22.95;21.20;;;21.60;53.70;;;;;;5014720;28;20040;-83
2022/06/12 08:22:25;;;;;;;25.15;23.42;;;21.70;53.10;;;;;;5053778;28;20044;-82
2022/06/12 08:24:51;;;;;;;22.55;20.60;;;21.60;53.20;;;;;;5028245;28;20053;-83
2022/06/12 08:27:17;;;;;;;23.02;21.23;;;21.90;53.90;;;;;;5044989;28;20379;-82
2022/06/12 08:29:43;;;;;;;22.77;20.75;;;22.10;54.40;;;;;;5040953;28;20036;-83
2022/06/12 08:32:15;;;;;;;21.92;20.13;;;22.30;54.00;;;;;;5047061;28;20029;-83
2022/06/12 08:34:44;;;;;;;24.42;22.23;;;22.30;54.10;;;;;;5029015;28;20028;-83
2022/06/12 08:37:22;;;;;;;31.75;29.60;;;22.40;53.40;;;;;;5031691;28;20021;-83
2022/06/12 08:39:48;;;;;;;24.52;22.52;;;22.60;52.20;;;;;;5031871;28;20052;-83
2022/06/12 08:42:24;;;;;;;25.58;23.77;;;22.50;52.30;;;;;;5017627;28;20395;-83
2022/06/12 08:44:53;;;;;;;25.15;23.13;;;22.50;52.00;;;;;;5049781;28;20033;-83
2022/06/12 08:47:25;;;;;;;25.60;23.48;;;22.50;52.70;;;;;;5049562;28;20032;-83
2022/06/12 08:50:04;;;;;;;28.73;26.67;;;22.60;52.40;;;;;;5050270;28;20033;-83
2022/06/12 08:53:02;;;;;;;30.13;28.08;;;22.80;51.90;;;;;;5033883;28;20040;-83
2022/06/12 08:55:36;;;;;;;26.35;24.20;;;23.00;51.30;;;;;;5029888;28;20415;-83
2022/06/12 08:58:08;;;;;;;26.20;23.92;;;23.00;51.60;;;;;;5048068;28;20032;-83
2022/06/12 09:00:35;;;;;;;23.30;21.38;;;23.00;51.30;;;;;;5030482;28;20033;-82
2022/06/12 09:03:06;;;;;;;31.77;29.30;;;23.00;51.40;;;;;;5036560;28;20037;-82
2022/06/12 09:05:57;;;;;;;26.27;24.33;;;23.10;50.10;;;;;;5040437;28;20037;-82
2022/06/12 09:09:00;;;;;;;27.95;26.08;;;22.80;50.40;;;;;;5034618;28;20040;-83
2022/06/12 09:11:57;;;;;;;26.92;25.13;;;22.80;49.80;;;;;;5043870;28;20037;-82
2022/06/12 09:14:53;;;;;;;25.45;23.63;;;22.80;50.30;;;;;;5032432;28;20053;-82
2022/06/12 09:17:43;;;;;;;26.08;24.38;;;22.80;50.20;;;;;;5049192;28;20034;-83
2022/06/12 09:20:34;;;;;;;29.13;27.38;;;23.00;48.70;;;;;;5049053;28;20032;-83
2022/06/12 09:23:21;;;;;;;29.17;26.98;;;23.20;47.80;;;;;;5032794;28;20490;-83
2022/06/12 09:26:01;;;;;;;22.42;20.70;;;23.20;47.60;;;;;;5034607;28;20052;-82
2022/06/12 09:29:00;;;;;;;23.58;21.42;;;22.80;49.10;;;;;;5033406;28;20514;-82
2022/06/12 09:31:39;;;;;;;22.15;20.55;;;23.00;49.10;;;;;;5016624;28;20372;-83
2022/06/12 09:34:13;;;;;;;21.65;20.15;;;23.30;48.20;;;;;;5048853;28;20033;-82
2022/06/12 09:36:58;;;;;;;24.35;22.55;;;23.40;48.10;;;;;;5051165;28;20040;-82
2022/06/12 09:39:44;;;;;;;24.33;22.05;;;23.50;48.20;;;;;;5048997;28;20037;-83
2022/06/12 09:42:17;;;;;;;22.83;20.63;;;23.50;49.10;;;;;;5028253;28;20025;-82
2022/06/12 09:44:53;;;;;;;22.65;21.05;;;23.60;48.80;;;;;;5043170;28;20395;-82
2022/06/12 09:47:24;;;;;;;27.77;25.92;;;23.70;47.50;;;;;;5042681;28;20037;-83
2022/06/12 09:50:03;;;;;;;23.17;21.42;;;23.60;47.60;;;;;;5047357;28;20021;-82
2022/06/12 09:52:55;;;;;;;23.50;21.55;;;23.60;48.50;;;;;;5047528;28;20028;-83
2022/06/12 09:55:47;;;;;;;25.35;23.58;;;23.80;48.20;;;;;;5049065;28;20021;-82
2022/06/12 09:58:35;;;;;;;23.60;21.58;;;23.90;46.90;;;;;;5046918;28;20033;-83
2022/06/12 10:01:24;;;;;;;23.73;22.13;;;24.00;47.70;;;;;;5051759;28;20403;-83
2022/06/12 10:03:58;;;;;;;24.05;22.13;;;24.00;47.20;;;;;;5049499;28;20025;-83
2022/06/12 10:06:35;;;;;;;24.15;22.27;;;24.10;47.10;;;;;;5026905;28;20327;-83
2022/06/12 10:09:11;;;;;;;23.50;21.45;;;24.20;46.90;;;;;;5027570;28;20739;-83
2022/06/12 10:11:48;;;;;;;25.33;23.55;;;24.30;47.20;;;;;;5042445;28;20033;-83
2022/06/12 10:14:22;;;;;;;23.23;21.42;;;24.40;47.00;;;;;;5030330;28;20042;-83
2022/06/12 10:16:54;;;;;;;26.20;24.42;;;24.30;46.80;;;;;;5046482;28;20096;-83
2022/06/12 10:19:32;;;;;;;23.30;21.52;;;24.40;46.80;;;;;;5050151;28;20021;-82
2022/06/12 10:22:05;;;;;;;23.48;21.75;;;24.50;46.90;;;;;;5051574;28;20380;-83
2022/06/12 10:24:31;;;;;;;25.23;23.02;;;24.40;46.00;;;;;;5027740;28;20037;-83
2022/06/12 10:26:58;;;;;;;25.00;22.98;;;24.60;46.20;;;;;;5048457;28;20036;-83
2022/06/12 10:29:25;;;;;;;23.33;21.38;;;24.70;45.80;;;;;;5031843;28;20041;-83
2022/06/12 10:32:04;;;;;;;22.42;20.80;;;24.60;44.70;;;;;;5046306;28;20100;-83
2022/06/12 10:34:32;;;;;;;23.15;21.67;;;24.50;44.50;;;;;;5015443;28;20037;-83
2022/06/12 10:37:19;;;;;;;23.42;21.83;;;24.40;44.40;;;;;;5033928;28;20040;-83
2022/06/12 10:39:46;;;;;;;22.67;21.13;;;24.50;45.10;;;;;;5047981;28;20388;-82
2022/06/12 10:42:38;;;;;;;21.10;19.77;;;24.50;44.80;;;;;;5025320;28;20033;-83
2022/06/12 10:45:04;;;;;;;22.45;20.73;;;24.60;44.40;;;;;;5026376;28;20368;-82
2022/06/12 10:47:47;;;;;;;24.48;22.27;;;24.70;44.10;;;;;;5032333;28;20048;-83
2022/06/12 10:50:30;;;;;;;24.98;23.27;;;24.90;44.30;;;;;;5025822;28;20037;-82
2022/06/12 10:53:08;;;;;;;22.23;20.60;;;25.10;43.80;;;;;;5046595;28;20392;-82
2022/06/12 10:55:42;;;;;;;21.95;20.23;;;25.00;44.00;;;;;;5031058;28;20044;-82
2022/06/12 10:58:45;;;;;;;21.52;19.95;;;25.00;43.70;;;;;;5045776;28;20024;-82
2022/06/12 11:01:33;;;;;;;21.67;20.38;;;25.00;43.40;;;;;;5045292;28;20052;-82
2022/06/12 11:04:14;;;;;;;21.52;19.77;;;25.00;43.00;;;;;;5049327;28;20380;-82
2022/06/12 11:07:14;;;;;;;23.30;21.80;;;24.90;43.40;;;;;;5049160;28;20036;-82
2022/06/12 11:09:43;;;;;;;23.45;22.02;;;24.80;44.00;;;;;;5034106;28;20391;-82
2022/06/12 11:12:35;;;;;;;24.30;22.60;;;24.80;44.20;;;;;;5046990;28;20029;-82
2022/06/12 11:15:15;;;;;;;23.80;21.85;;;24.70;44.60;;;;;;5043835;28;20048;-82
2022/06/12 11:18:05;;;;;;;23.38;21.75;;;24.70;44.50;;;;;;5027666;28;20041;-82
2022/06/12 11:20:54;;;;;;;23.05;21.50;;;24.70;44.10;;;;;;5044054;28;20035;-82
2022/06/12 11:23:46;;;;;;;23.02;21.40;;;24.50;44.10;;;;;;5018015;28;20388;-82
2022/06/12 11:26:36;;;;;;;25.85;23.70;;;24.50;44.40;;;;;;5041510;28;20400;-82
2022/06/12 11:29:10;;;;;;;22.63;21.05;;;24.30;45.10;;;;;;5048340;28;20048;-82
2022/06/12 11:32:00;;;;;;;22.33;20.73;;;24.60;44.50;;;;;;5013660;28;20029;-83
2022/06/12 11:34:52;;;;;;;22.33;20.92;;;24.80;44.50;;;;;;5046729;28;20048;-82
2022/06/12 11:37:27;;;;;;;22.95;21.45;;;25.00;44.00;;;;;;5018668;28;20038;-82
2022/06/12 11:40:35;;;;;;;20.92;19.65;;;25.20;44.10;;;;;;5008597;28;20145;-82
2022/06/12 11:43:09;;;;;;;22.70;21.27;;;25.40;43.30;;;;;;4950059;28;20501;-82
2022/06/12 11:45:41;;;;;;;22.90;21.60;;;25.60;42.50;;;;;;4969303;28;20057;-82
2022/06/12 11:48:19;;;;;;;21.83;20.40;;;25.60;44.50;;;;;;4969339;28;20053;-83
2022/06/12 11:51:06;;;;;;;21.10;19.70;;;25.80;42.50;;;;;;4969681;28;20462;-83
2022/06/12 11:53:38;;;;;;;21.20;19.80;;;25.90;42.00;;;;;;4957200;28;20398;-82
2022/06/12 11:56:20;;;;;;;20.63;19.48;;;25.90;41.60;;;;;;4954942;28;20035;-82
2022/06/12 11:58:52;;;;;;;21.00;19.52;;;26.00;41.10;;;;;;4937219;28;20497;-82
2022/06/12 12:01:31;;;;;;;20.83;19.55;;;26.00;41.40;;;;;;4967158;28;20035;-82
2022/06/12 12:04:37;;;;;;;22.10;20.60;;;26.20;41.60;;;;;;4953167;28;20042;-82
2022/06/12 12:07:22;;;;;;;21.02;19.73;;;26.40;40.90;;;;;;4945359;28;20065;-83
2022/06/12 12:10:20;;;;;;;21.90;19.95;;;26.60;40.70;;;;;;4967605;28;20031;-83
2022/06/12 12:12:54;;;;;;;22.35;20.88;;;26.60;40.70;;;;;;4964431;28;20194;-83
2022/06/12 12:15:23;;;;;;;21.92;20.38;;;26.60;41.10;;;;;;4971391;28;20057;-82
2022/06/12 12:17:50;;;;;;;20.88;19.40;;;26.70;41.60;;;;;;4987869;28;20030;-83
2022/06/12 12:20:24;;;;;;;21.92;20.50;;;27.00;40.70;;;;;;5017083;28;20056;-83
2022/06/12 12:23:00;;;;;;;21.40;20.00;;;27.10;40.20;;;;;;5050375;28;20025;-82
2022/06/12 12:25:36;;;;;;;21.52;20.13;;;26.90;40.30;;;;;;5050156;28;20041;-83
2022/06/12 12:28:30;;;;;;;22.05;20.75;;;26.80;40.30;;;;;;5048839;28;20427;-82
2022/06/12 12:31:07;;;;;;;20.88;19.33;;;26.80;40.80;;;;;;5039820;28;20045;-82
2022/06/12 12:33:33;;;;;;;21.42;20.02;;;26.90;40.10;;;;;;5032170;28;20407;-82
2022/06/12 12:41:43;;;;;;;21.30;19.90;;;26.70;40.30;;;;;;5051107;28;20048;-82
2022/06/12 12:44:10;;;;;;;21.27;19.77;;;26.60;40.20;;;;;;5049636;28;20025;-82
2022/06/12 12:46:47;;;;;;;21.27;20.02;;;26.50;40.20;;;;;;5048388;28;20040;-82
2022/06/12 12:49:21;;;;;;;21.35;19.73;;;26.40;40.50;;;;;;5032800;28;20380;-83
2022/06/12 12:51:47;;;;;;;20.30;19.23;;;26.50;40.80;;;;;;5031958;28;20045;-83
2022/06/12 12:54:20;;;;;;;20.70;19.40;;;26.50;40.50;;;;;;5032688;28;20024;-83
2022/06/12 12:57:01;;;;;;;19.65;18.55;;;26.40;40.40;;;;;;5027648;28;20029;-82
2022/06/12 12:59:57;;;;;;;22.50;21.02;;;26.50;40.30;;;;;;5027877;28;20025;-82
2022/06/12 13:02:31;;;;;;;20.35;19.25;;;26.60;42.20;;;;;;5030936;28;20045;-83
2022/06/12 13:05:17;;;;;;;19.98;18.98;;;26.90;39.80;;;;;;5018456;28;20033;-83
2022/06/12 13:07:47;;;;;;;21.08;19.83;;;27.00;39.10;;;;;;5018165;28;20026;-83
2022/06/12 13:10:25;;;;;;;21.88;20.60;;;27.00;39.50;;;;;;5052013;28;20379;-82
2022/06/12 13:12:54;;;;;;;20.20;18.92;;;26.80;39.30;;;;;;5051454;28;20361;-82
2022/06/12 13:15:39;;;;;;;22.08;20.85;;;26.50;39.60;;;;;;5048644;28;20037;-83